Goose Bay, Canada
Current Conditions -  °F | °C
As of 8:00 PM on Wednesday 22 Oct 2014 (Local Time) from CYYR Reporting Station
Few Clouds Few Clouds  
Wind Chill: 32°   Ceiling: Unl
Heat Index: 36°   Visibility: 15mi
Dew Point: 23°   Wind: 5mph
Humidity: 60%   Direction: 260°W
Pressure: 30.37"   Gusts: NA
Location:  53.31°N, 60.41°W
Report Text: CYYR 222300Z 26004KT 15SM FEW034 02/M05 A3037 RMK SC1 /BLUE/ SLP289
Loading
Personal Weather Stations






























Interactive Weather Map
Tropical Storm Tracking
New forecast layout! Learn more

10-Day Weather Forecast

Advertisements
Track Severe Weather on mobile